sensor_id;sensor_type;location;lat;lon;timestamp;pressure;altitude;pressure_sealevel;temperature;humidity
28701;BME280;15877;52.344;16.790;2023-04-22T00:00:45;100711.71;;;13.06;54.93
28701;BME280;15877;52.344;16.790;2023-04-22T00:03:21;100714.80;;;13.01;54.85
28701;BME280;15877;52.344;16.790;2023-04-22T00:05:54;100707.61;;;12.95;54.78
28701;BME280;15877;52.344;16.790;2023-04-22T00:08:26;100701.76;;;12.89;54.96
28701;BME280;15877;52.344;16.790;2023-04-22T00:10:59;100703.10;;;12.84;55.19
28701;BME280;15877;52.344;16.790;2023-04-22T00:13:31;100700.29;;;12.78;55.32
28701;BME280;15877;52.344;16.790;2023-04-22T00:16:04;100695.98;;;12.73;55.39
28701;BME280;15877;52.344;16.790;2023-04-22T00:18:37;100692.89;;;12.69;55.59
28701;BME280;15877;52.344;16.790;2023-04-22T00:21:09;100695.92;;;12.65;55.76
28701;BME280;15877;52.344;16.790;2023-04-22T00:23:42;100695.30;;;12.61;55.85
28701;BME280;15877;52.344;16.790;2023-04-22T00:26:15;100695.64;;;12.57;55.92
28701;BME280;15877;52.344;16.790;2023-04-22T00:28:47;100690.99;;;12.57;56.07
28701;BME280;15877;52.344;16.790;2023-04-22T00:31:20;100692.52;;;12.57;55.91
28701;BME280;15877;52.344;16.790;2023-04-22T00:33:52;100678.24;;;12.47;55.91
28701;BME280;15877;52.344;16.790;2023-04-22T00:36:25;100692.65;;;12.56;55.88
28701;BME280;15877;52.344;16.790;2023-04-22T00:38:58;100660.20;;;12.40;55.52
28701;BME280;15877;52.344;16.790;2023-04-22T00:41:31;100664.12;;;12.45;55.83
28701;BME280;15877;52.344;16.790;2023-04-22T00:44:04;100688.13;;;12.61;55.82
28701;BME280;15877;52.344;16.790;2023-04-22T00:46:37;100687.00;;;12.60;55.84
28701;BME280;15877;52.344;16.790;2023-04-22T00:49:11;100686.53;;;12.61;55.97
28701;BME280;15877;52.344;16.790;2023-04-22T00:51:43;100685.01;;;12.60;55.94
28701;BME280;15877;52.344;16.790;2023-04-22T00:54:16;100684.55;;;12.60;55.94
28701;BME280;15877;52.344;16.790;2023-04-22T00:56:48;100685.72;;;12.60;55.91
28701;BME280;15877;52.344;16.790;2023-04-22T00:59:20;100686.34;;;12.59;55.98
28701;BME280;15877;52.344;16.790;2023-04-22T01:01:55;100684.42;;;12.59;55.70
28701;BME280;15877;52.344;16.790;2023-04-22T01:04:29;100685.47;;;12.60;55.51
28701;BME280;15877;52.344;16.790;2023-04-22T01:07:02;100689.71;;;12.60;55.36
28701;BME280;15877;52.344;16.790;2023-04-22T01:09:35;100684.45;;;12.60;55.20
28701;BME280;15877;52.344;16.790;2023-04-22T01:12:08;100690.69;;;12.62;55.26
28701;BME280;15877;52.344;16.790;2023-04-22T01:14:41;100686.77;;;12.60;55.42
28701;BME280;15877;52.344;16.790;2023-04-22T01:17:15;100689.19;;;12.58;55.64
28701;BME280;15877;52.344;16.790;2023-04-22T01:19:49;100688.86;;;12.57;55.73
28701;BME280;15877;52.344;16.790;2023-04-22T01:22:23;100695.38;;;12.57;55.65
28701;BME280;15877;52.344;16.790;2023-04-22T01:24:57;100691.70;;;12.56;55.43
28701;BME280;15877;52.344;16.790;2023-04-22T01:27:29;100692.29;;;12.57;55.32
28701;BME280;15877;52.344;16.790;2023-04-22T01:30:01;100691.73;;;12.58;55.12
28701;BME280;15877;52.344;16.790;2023-04-22T01:32:34;100687.27;;;12.58;55.08
28701;BME280;15877;52.344;16.790;2023-04-22T01:35:08;100688.24;;;12.59;55.32
28701;BME280;15877;52.344;16.790;2023-04-22T01:37:40;100687.70;;;12.60;55.15
28701;BME280;15877;52.344;16.790;2023-04-22T01:40:14;100687.44;;;12.58;55.32
28701;BME280;15877;52.344;16.790;2023-04-22T01:42:50;100687.82;;;12.58;55.39
28701;BME280;15877;52.344;16.790;2023-04-22T01:45:22;100684.98;;;12.54;55.52
28701;BME280;15877;52.344;16.790;2023-04-22T01:47:56;100688.50;;;12.51;55.49
28701;BME280;15877;52.344;16.790;2023-04-22T01:50:29;100688.89;;;12.46;55.31
28701;BME280;15877;52.344;16.790;2023-04-22T01:53:02;100682.13;;;12.46;54.98
28701;BME280;15877;52.344;16.790;2023-04-22T01:55:34;100681.83;;;12.44;54.74
28701;BME280;15877;52.344;16.790;2023-04-22T01:58:07;100683.09;;;12.43;55.09
28701;BME280;15877;52.344;16.790;2023-04-22T02:00:39;100680.52;;;12.41;55.17
28701;BME280;15877;52.344;16.790;2023-04-22T02:03:12;100680.19;;;12.40;55.35
28701;BME280;15877;52.344;16.790;2023-04-22T02:05:44;100675.70;;;12.39;55.65
28701;BME280;15877;52.344;16.790;2023-04-22T02:08:16;100678.64;;;12.38;55.83
28701;BME280;15877;52.344;16.790;2023-04-22T02:10:49;100671.73;;;12.35;55.88
28701;BME280;15877;52.344;16.790;2023-04-22T02:13:21;100673.02;;;12.32;55.72
28701;BME280;15877;52.344;16.790;2023-04-22T02:15:54;100673.77;;;12.29;55.65
28701;BME280;15877;52.344;16.790;2023-04-22T02:18:26;100677.45;;;12.25;55.66
28701;BME280;15877;52.344;16.790;2023-04-22T02:20:59;100669.11;;;12.22;55.57
28701;BME280;15877;52.344;16.790;2023-04-22T02:23:32;100672.94;;;12.19;55.73
28701;BME280;15877;52.344;16.790;2023-04-22T02:26:04;100675.76;;;12.16;55.88
28701;BME280;15877;52.344;16.790;2023-04-22T02:28:37;100670.19;;;12.12;55.99
28701;BME280;15877;52.344;16.790;2023-04-22T02:31:09;100658.60;;;12.01;55.94
28701;BME280;15877;52.344;16.790;2023-04-22T02:33:42;100667.30;;;12.07;55.63
28701;BME280;15877;52.344;16.790;2023-04-22T02:36:15;100668.11;;;12.04;55.59
28701;BME280;15877;52.344;16.790;2023-04-22T02:38:49;100665.26;;;12.01;55.65
28701;BME280;15877;52.344;16.790;2023-04-22T02:41:21;100663.05;;;11.97;55.73
28701;BME280;15877;52.344;16.790;2023-04-22T02:43:54;100661.52;;;11.92;55.75
28701;BME280;15877;52.344;16.790;2023-04-22T02:46:27;100661.52;;;11.89;55.86
28701;BME280;15877;52.344;16.790;2023-04-22T02:49:00;100655.77;;;11.83;56.14
28701;BME280;15877;52.344;16.790;2023-04-22T02:51:33;100647.02;;;11.71;56.22
28701;BME280;15877;52.344;16.790;2023-04-22T02:54:06;100653.98;;;11.74;56.41
28701;BME280;15877;52.344;16.790;2023-04-22T02:56:38;100657.23;;;11.70;56.26
28701;BME280;15877;52.344;16.790;2023-04-22T02:59:10;100655.55;;;11.69;56.10
28701;BME280;15877;52.344;16.790;2023-04-22T03:01:42;100652.53;;;11.66;56.12
28701;BME280;15877;52.344;16.790;2023-04-22T03:04:21;100651.23;;;11.62;56.47
28701;BME280;15877;52.344;16.790;2023-04-22T03:06:55;100653.53;;;11.57;56.46
28701;BME280;15877;52.344;16.790;2023-04-22T03:09:29;100649.36;;;11.52;56.36
28701;BME280;15877;52.344;16.790;2023-04-22T03:12:01;100655.59;;;11.54;56.34
28701;BME280;15877;52.344;16.790;2023-04-22T03:14:34;100643.41;;;11.46;56.30
28701;BME280;15877;52.344;16.790;2023-04-22T03:17:06;100653.28;;;11.58;56.12
28701;BME280;15877;52.344;16.790;2023-04-22T03:19:39;100651.80;;;11.58;56.31
28701;BME280;15877;52.344;16.790;2023-04-22T03:22:12;100651.77;;;11.57;56.44
28701;BME280;15877;52.344;16.790;2023-04-22T03:24:46;100648.95;;;11.56;56.60
28701;BME280;15877;52.344;16.790;2023-04-22T03:27:19;100646.67;;;11.53;56.38
28701;BME280;15877;52.344;16.790;2023-04-22T03:29:51;100642.97;;;11.51;56.40
28701;BME280;15877;52.344;16.790;2023-04-22T03:32:24;100647.95;;;11.54;56.30
28701;BME280;15877;52.344;16.790;2023-04-22T03:35:21;100641.94;;;11.55;56.21
28701;BME280;15877;52.344;16.790;2023-04-22T03:37:54;100641.91;;;11.53;56.40
28701;BME280;15877;52.344;16.790;2023-04-22T03:40:31;100638.38;;;11.52;56.63
28701;BME280;15877;52.344;16.790;2023-04-22T03:43:06;100635.54;;;11.49;56.44
28701;BME280;15877;52.344;16.790;2023-04-22T03:45:39;100637.14;;;11.46;56.35
28701;BME280;15877;52.344;16.790;2023-04-22T03:48:19;100635.11;;;11.44;56.30
28701;BME280;15877;52.344;16.790;2023-04-22T03:50:53;100633.61;;;11.41;56.28
28701;BME280;15877;52.344;16.790;2023-04-22T03:53:27;100639.73;;;11.37;56.25
28701;BME280;15877;52.344;16.790;2023-04-22T03:55:59;100637.52;;;11.34;56.52
28701;BME280;15877;52.344;16.790;2023-04-22T04:01:08;100636.88;;;11.30;56.75
28701;BME280;15877;52.344;16.790;2023-04-22T04:03:41;100623.10;;;11.22;56.96
28701;BME280;15877;52.344;16.790;2023-04-22T04:06:18;100636.61;;;11.29;56.89
28701;BME280;15877;52.344;16.790;2023-04-22T04:08:50;100636.53;;;11.29;57.18
28701;BME280;15877;52.344;16.790;2023-04-22T04:11:22;100634.77;;;11.29;57.02
28701;BME280;15877;52.344;16.790;2023-04-22T04:13:56;100635.42;;;11.30;57.03
28701;BME280;15877;52.344;16.790;2023-04-22T04:16:40;100633.27;;;11.29;57.00
28701;BME280;15877;52.344;16.790;2023-04-22T04:19:16;100608.88;;;11.11;57.16
28701;BME280;15877;52.344;16.790;2023-04-22T04:21:50;100631.34;;;11.28;57.31
28701;BME280;15877;52.344;16.790;2023-04-22T04:24:23;100633.90;;;11.29;57.14
28701;BME280;15877;52.344;16.790;2023-04-22T04:27:00;100633.98;;;11.29;57.41
28701;BME280;15877;52.344;16.790;2023-04-22T04:29:38;100632.67;;;11.31;57.49
28701;BME280;15877;52.344;16.790;2023-04-22T04:32:18;100631.16;;;11.30;57.70
28701;BME280;15877;52.344;16.790;2023-04-22T04:34:52;100633.33;;;11.32;58.08
28701;BME280;15877;52.344;16.790;2023-04-22T04:37:25;100632.32;;;11.33;58.08
28701;BME280;15877;52.344;16.790;2023-04-22T04:40:02;100630.16;;;11.36;58.22
28701;BME280;15877;52.344;16.790;2023-04-22T04:42:44;100637.25;;;11.40;58.09
28701;BME280;15877;52.344;16.790;2023-04-22T04:45:21;100635.87;;;11.42;58.10
28701;BME280;15877;52.344;16.790;2023-04-22T04:47:56;100636.80;;;11.45;58.31
28701;BME280;15877;52.344;16.790;2023-04-22T04:50:34;100633.80;;;11.42;58.78
28701;BME280;15877;52.344;16.790;2023-04-22T04:53:06;100639.28;;;11.50;58.86
28701;BME280;15877;52.344;16.790;2023-04-22T04:55:41;100642.14;;;11.53;59.03
28701;BME280;15877;52.344;16.790;2023-04-22T04:58:20;100644.52;;;11.57;58.99
28701;BME280;15877;52.344;16.790;2023-04-22T05:01:01;100640.63;;;11.61;59.43
28701;BME280;15877;52.344;16.790;2023-04-22T05:03:33;100642.65;;;11.65;59.76
28701;BME280;15877;52.344;16.790;2023-04-22T05:06:07;100639.48;;;11.69;60.24
28701;BME280;15877;52.344;16.790;2023-04-22T05:08:39;100638.73;;;11.70;60.57
28701;BME280;15877;52.344;16.790;2023-04-22T05:11:12;100637.45;;;11.78;59.93
28701;BME280;15877;52.344;16.790;2023-04-22T05:13:45;100640.59;;;11.84;59.60
28701;BME280;15877;52.344;16.790;2023-04-22T05:16:22;100637.73;;;11.84;59.60
28701;BME280;15877;52.344;16.790;2023-04-22T05:18:55;100636.87;;;11.85;59.56
28701;BME280;15877;52.344;16.790;2023-04-22T05:21:28;100632.95;;;11.88;59.90
28701;BME280;15877;52.344;16.790;2023-04-22T05:24:01;100632.56;;;11.92;60.06
28701;BME280;15877;52.344;16.790;2023-04-22T05:26:34;100632.77;;;11.99;59.90
28701;BME280;15877;52.344;16.790;2023-04-22T05:29:12;100631.17;;;12.06;59.84
28701;BME280;15877;52.344;16.790;2023-04-22T05:31:44;100630.13;;;12.11;59.64
28701;BME280;15877;52.344;16.790;2023-04-22T05:34:17;100631.06;;;12.14;59.75
28701;BME280;15877;52.344;16.790;2023-04-22T05:36:49;100630.62;;;12.19;59.88
28701;BME280;15877;52.344;16.790;2023-04-22T05:39:22;100633.64;;;12.23;60.14
28701;BME280;15877;52.344;16.790;2023-04-22T05:41:55;100636.30;;;12.30;60.16
28701;BME280;15877;52.344;16.790;2023-04-22T05:44:27;100635.73;;;12.34;59.72
28701;BME280;15877;52.344;16.790;2023-04-22T05:47:00;100637.58;;;12.39;59.28
28701;BME280;15877;52.344;16.790;2023-04-22T05:49:33;100636.10;;;12.46;59.17
28701;BME280;15877;52.344;16.790;2023-04-22T05:52:08;100636.98;;;12.50;58.67
28701;BME280;15877;52.344;16.790;2023-04-22T05:54:51;100641.13;;;12.56;58.42
28701;BME280;15877;52.344;16.790;2023-04-22T05:57:23;100640.13;;;12.63;58.38
28701;BME280;15877;52.344;16.790;2023-04-22T05:59:57;100642.83;;;12.66;57.92
28701;BME280;15877;52.344;16.790;2023-04-22T06:02:30;100646.16;;;12.70;58.25
28701;BME280;15877;52.344;16.790;2023-04-22T06:05:03;100643.01;;;12.76;58.19
28701;BME280;15877;52.344;16.790;2023-04-22T06:07:36;100648.48;;;12.81;57.93
28701;BME280;15877;52.344;16.790;2023-04-22T06:10:10;100644.23;;;12.93;58.12
28701;BME280;15877;52.344;16.790;2023-04-22T06:12:42;100647.71;;;12.97;58.19
28701;BME280;15877;52.344;16.790;2023-04-22T06:15:14;100646.69;;;13.02;58.64
28701;BME280;15877;52.344;16.790;2023-04-22T06:17:48;100645.20;;;13.07;59.24
28701;BME280;15877;52.344;16.790;2023-04-22T06:20:21;100646.46;;;13.12;59.09
28701;BME280;15877;52.344;16.790;2023-04-22T06:22:53;100645.27;;;13.17;58.63
28701;BME280;15877;52.344;16.790;2023-04-22T06:25:26;100644.23;;;13.28;58.49
28701;BME280;15877;52.344;16.790;2023-04-22T06:27:59;100641.63;;;13.36;58.98
28701;BME280;15877;52.344;16.790;2023-04-22T06:30:31;100637.95;;;13.41;59.43
28701;BME280;15877;52.344;16.790;2023-04-22T06:33:04;100638.70;;;13.49;59.37
28701;BME280;15877;52.344;16.790;2023-04-22T06:35:38;100637.98;;;13.62;58.62
28701;BME280;15877;52.344;16.790;2023-04-22T06:38:10;100639.65;;;13.66;58.56
28701;BME280;15877;52.344;16.790;2023-04-22T06:40:49;100637.64;;;13.74;58.79
28701;BME280;15877;52.344;16.790;2023-04-22T06:43:27;100637.27;;;13.80;58.32
28701;BME280;15877;52.344;16.790;2023-04-22T06:46:23;100633.73;;;13.91;58.01
28701;BME280;15877;52.344;16.790;2023-04-22T06:48:55;100634.20;;;13.98;57.94
28701;BME280;15877;52.344;16.790;2023-04-22T06:51:33;100625.59;;;13.98;57.78
28701;BME280;15877;52.344;16.790;2023-04-22T06:54:06;100635.90;;;14.15;57.98
28701;BME280;15877;52.344;16.790;2023-04-22T06:56:38;100635.44;;;14.23;57.71
28701;BME280;15877;52.344;16.790;2023-04-22T06:59:11;100631.77;;;14.28;57.89
28701;BME280;15877;52.344;16.790;2023-04-22T07:01:44;100631.46;;;14.30;57.29
28701;BME280;15877;52.344;16.790;2023-04-22T07:04:16;100625.50;;;14.40;57.34
28701;BME280;15877;52.344;16.790;2023-04-22T07:06:49;100618.35;;;14.44;58.11
28701;BME280;15877;52.344;16.790;2023-04-22T07:09:22;100627.70;;;14.62;57.83
28701;BME280;15877;52.344;16.790;2023-04-22T07:11:54;100628.27;;;14.73;56.35
28701;BME280;15877;52.344;16.790;2023-04-22T07:14:32;100625.19;;;14.79;55.76
28701;BME280;15877;52.344;16.790;2023-04-22T07:17:04;100625.50;;;14.88;55.90
28701;BME280;15877;52.344;16.790;2023-04-22T07:19:36;100621.67;;;14.99;57.09
28701;BME280;15877;52.344;16.790;2023-04-22T07:22:10;100618.05;;;15.06;57.36
28701;BME280;15877;52.344;16.790;2023-04-22T07:24:42;100622.55;;;15.12;56.50
28701;BME280;15877;52.344;16.790;2023-04-22T07:27:14;100625.19;;;15.21;56.58
28701;BME280;15877;52.344;16.790;2023-04-22T07:29:47;100622.11;;;15.29;56.81
28701;BME280;15877;52.344;16.790;2023-04-22T07:32:20;100621.14;;;15.39;56.82
28701;BME280;15877;52.344;16.790;2023-04-22T07:34:52;100623.05;;;15.51;56.87
28701;BME280;15877;52.344;16.790;2023-04-22T07:37:25;100622.87;;;15.61;56.16
28701;BME280;15877;52.344;16.790;2023-04-22T07:39:57;100622.65;;;15.66;55.68
28701;BME280;15877;52.344;16.790;2023-04-22T07:42:29;100619.95;;;15.73;55.89
28701;BME280;15877;52.344;16.790;2023-04-22T07:45:02;100618.95;;;15.82;55.82
28701;BME280;15877;52.344;16.790;2023-04-22T07:47:34;100621.46;;;15.91;55.44
28701;BME280;15877;52.344;16.790;2023-04-22T07:50:08;100624.37;;;15.98;55.92
28701;BME280;15877;52.344;16.790;2023-04-22T07:52:41;100622.16;;;16.08;56.59
28701;BME280;15877;52.344;16.790;2023-04-22T07:55:13;100621.14;;;16.19;60.20
28701;BME280;15877;52.344;16.790;2023-04-22T07:57:45;100621.72;;;16.26;58.86
28701;BME280;15877;52.344;16.790;2023-04-22T08:00:18;100613.41;;;16.39;59.56
28701;BME280;15877;52.344;16.790;2023-04-22T08:02:50;100613.52;;;16.47;60.05
28701;BME280;15877;52.344;16.790;2023-04-22T08:05:23;100611.52;;;16.56;57.95
28701;BME280;15877;52.344;16.790;2023-04-22T08:07:55;100611.70;;;16.70;61.08
28701;BME280;15877;52.344;16.790;2023-04-22T08:10:28;100612.98;;;16.79;56.37
28701;BME280;15877;52.344;16.790;2023-04-22T08:13:01;100610.16;;;16.88;56.75
28701;BME280;15877;52.344;16.790;2023-04-22T08:15:34;100610.07;;;16.94;55.54
28701;BME280;15877;52.344;16.790;2023-04-22T08:18:06;100598.20;;;16.96;56.17
28701;BME280;15877;52.344;16.790;2023-04-22T08:20:38;100604.60;;;17.14;60.20
28701;BME280;15877;52.344;16.790;2023-04-22T08:23:11;100605.88;;;17.21;56.42
28701;BME280;15877;52.344;16.790;2023-04-22T08:25:43;100604.71;;;17.33;56.20
28701;BME280;15877;52.344;16.790;2023-04-22T08:28:16;100600.77;;;17.39;56.10
28701;BME280;15877;52.344;16.790;2023-04-22T08:30:49;100601.31;;;17.49;54.14
28701;BME280;15877;52.344;16.790;2023-04-22T08:33:24;100605.23;;;17.56;55.22
28701;BME280;15877;52.344;16.790;2023-04-22T08:35:57;100602.96;;;17.63;54.30
28701;BME280;15877;52.344;16.790;2023-04-22T08:38:29;100597.06;;;17.71;55.56
28701;BME280;15877;52.344;16.790;2023-04-22T08:41:03;100595.83;;;17.79;52.71
28701;BME280;15877;52.344;16.790;2023-04-22T08:43:36;100594.10;;;17.86;53.54
28701;BME280;15877;52.344;16.790;2023-04-22T08:46:08;100596.54;;;17.95;51.89
28701;BME280;15877;52.344;16.790;2023-04-22T08:48:41;100577.36;;;17.93;48.40
28701;BME280;15877;52.344;16.790;2023-04-22T08:51:14;100581.88;;;18.03;49.38
28701;BME280;15877;52.344;16.790;2023-04-22T08:53:47;100586.20;;;18.19;49.42
28701;BME280;15877;52.344;16.790;2023-04-22T08:56:20;100588.87;;;18.27;49.57
28701;BME280;15877;52.344;16.790;2023-04-22T08:58:53;100579.87;;;18.28;49.80
28701;BME280;15877;52.344;16.790;2023-04-22T09:01:27;100590.49;;;18.38;46.87
28701;BME280;15877;52.344;16.790;2023-04-22T09:04:02;100585.39;;;18.45;44.38
28701;BME280;15877;52.344;16.790;2023-04-22T09:06:34;100586.42;;;18.58;45.75
28701;BME280;15877;52.344;16.790;2023-04-22T09:09:07;100583.94;;;18.66;45.66
28701;BME280;15877;52.344;16.790;2023-04-22T09:11:39;100588.73;;;18.70;46.48
28701;BME280;15877;52.344;16.790;2023-04-22T09:14:12;100591.02;;;18.84;46.54
28701;BME280;15877;52.344;16.790;2023-04-22T09:16:48;100586.83;;;18.93;44.91
28701;BME280;15877;52.344;16.790;2023-04-22T09:19:23;100584.85;;;18.99;42.33
28701;BME280;15877;52.344;16.790;2023-04-22T09:21:59;100583.08;;;19.15;42.77
28701;BME280;15877;52.344;16.790;2023-04-22T09:24:32;100576.35;;;19.19;43.89
28701;BME280;15877;52.344;16.790;2023-04-22T09:27:05;100566.54;;;19.18;44.73
28701;BME280;15877;52.344;16.790;2023-04-22T09:29:38;100572.18;;;19.33;43.71
28701;BME280;15877;52.344;16.790;2023-04-22T09:32:11;100571.98;;;19.47;42.94
28701;BME280;15877;52.344;16.790;2023-04-22T09:34:49;100571.48;;;19.53;42.45
28701;BME280;15877;52.344;16.790;2023-04-22T09:37:25;100571.27;;;19.63;40.59
28701;BME280;15877;52.344;16.790;2023-04-22T09:40:18;100566.77;;;19.76;40.65
28701;BME280;15877;52.344;16.790;2023-04-22T09:42:49;100567.52;;;19.79;39.08
28701;BME280;15877;52.344;16.790;2023-04-22T09:45:30;100563.75;;;19.95;38.48
28701;BME280;15877;52.344;16.790;2023-04-22T09:48:05;100564.92;;;19.98;37.85
28701;BME280;15877;52.344;16.790;2023-04-22T09:50:39;100563.19;;;20.01;35.51
28701;BME280;15877;52.344;16.790;2023-04-22T09:53:13;100562.05;;;19.96;35.88
28701;BME280;15877;52.344;16.790;2023-04-22T09:55:47;100562.55;;;20.07;36.76
28701;BME280;15877;52.344;16.790;2023-04-22T09:58:21;100561.92;;;20.28;37.52
28701;BME280;15877;52.344;16.790;2023-04-22T10:00:57;100554.89;;;20.29;36.91
28701;BME280;15877;52.344;16.790;2023-04-22T10:03:30;100549.67;;;20.33;35.12
28701;BME280;15877;52.344;16.790;2023-04-22T10:06:03;100551.04;;;20.43;35.57
28701;BME280;15877;52.344;16.790;2023-04-22T10:08:37;100546.70;;;20.42;34.55
28701;BME280;15877;52.344;16.790;2023-04-22T10:11:09;100540.88;;;20.48;34.20
28701;BME280;15877;52.344;16.790;2023-04-22T10:13:42;100545.73;;;20.61;34.68
28701;BME280;15877;52.344;16.790;2023-04-22T10:16:15;100545.00;;;20.58;34.13
28701;BME280;15877;52.344;16.790;2023-04-22T10:18:51;100542.57;;;20.72;34.86
28701;BME280;15877;52.344;16.790;2023-04-22T10:21:27;100542.19;;;20.84;34.46
28701;BME280;15877;52.344;16.790;2023-04-22T10:24:00;100536.01;;;20.96;34.16
28701;BME280;15877;52.344;16.790;2023-04-22T10:26:47;100538.10;;;21.06;34.80
28701;BME280;15877;52.344;16.790;2023-04-22T10:29:21;100529.74;;;21.16;34.51
28701;BME280;15877;52.344;16.790;2023-04-22T10:32:03;100528.42;;;21.22;34.06
28701;BME280;15877;52.344;16.790;2023-04-22T10:34:37;100530.77;;;21.33;35.65
28701;BME280;15877;52.344;16.790;2023-04-22T10:37:10;100527.45;;;21.42;34.56
28701;BME280;15877;52.344;16.790;2023-04-22T10:40:04;100521.91;;;21.48;33.58
28701;BME280;15877;52.344;16.790;2023-04-22T10:42:39;100521.11;;;21.55;34.70
28701;BME280;15877;52.344;16.790;2023-04-22T10:45:14;100518.45;;;21.62;35.76
28701;BME280;15877;52.344;16.790;2023-04-22T10:47:46;100521.37;;;21.69;36.34
28701;BME280;15877;52.344;16.790;2023-04-22T10:50:21;100496.60;;;21.64;36.25
28701;BME280;15877;52.344;16.790;2023-04-22T10:52:57;100510.04;;;21.82;36.73
28701;BME280;15877;52.344;16.790;2023-04-22T10:55:50;100509.54;;;21.94;37.21
28701;BME280;15877;52.344;16.790;2023-04-22T10:58:24;100503.54;;;22.04;37.52
28701;BME280;15877;52.344;16.790;2023-04-22T11:00:56;100505.51;;;22.10;35.60
28701;BME280;15877;52.344;16.790;2023-04-22T11:03:33;100498.48;;;22.13;35.54
28701;BME280;15877;52.344;16.790;2023-04-22T11:06:16;100500.27;;;22.29;36.16
28701;BME280;15877;52.344;16.790;2023-04-22T11:08:51;100496.17;;;22.38;35.57
28701;BME280;15877;52.344;16.790;2023-04-22T11:11:38;100488.81;;;22.43;35.59
28701;BME280;15877;52.344;16.790;2023-04-22T11:14:11;100494.95;;;22.54;36.52
28701;BME280;15877;52.344;16.790;2023-04-22T11:16:47;100487.03;;;22.60;34.73
28701;BME280;15877;52.344;16.790;2023-04-22T11:19:22;100479.55;;;22.74;34.57
28701;BME280;15877;52.344;16.790;2023-04-22T11:21:54;100477.09;;;22.78;35.76
28701;BME280;15877;52.344;16.790;2023-04-22T11:24:28;100473.77;;;22.75;33.19
28701;BME280;15877;52.344;16.790;2023-04-22T11:27:00;100464.30;;;22.84;32.66
28701;BME280;15877;52.344;16.790;2023-04-22T11:29:33;100470.07;;;22.83;32.84
28701;BME280;15877;52.344;16.790;2023-04-22T11:32:05;100472.06;;;22.90;33.16
28701;BME280;15877;52.344;16.790;2023-04-22T11:34:38;100467.46;;;23.01;33.61
28701;BME280;15877;52.344;16.790;2023-04-22T11:37:10;100459.33;;;23.11;32.47
28701;BME280;15877;52.344;16.790;2023-04-22T11:39:43;100462.42;;;23.16;32.58
28701;BME280;15877;52.344;16.790;2023-04-22T11:42:35;100456.23;;;23.20;32.07
28701;BME280;15877;52.344;16.790;2023-04-22T11:45:09;100455.79;;;23.16;32.62
28701;BME280;15877;52.344;16.790;2023-04-22T11:47:42;100451.66;;;23.13;32.81
28701;BME280;15877;52.344;16.790;2023-04-22T11:50:16;100445.64;;;23.19;31.08
28701;BME280;15877;52.344;16.790;2023-04-22T11:52:51;100446.48;;;23.22;30.95
28701;BME280;15877;52.344;16.790;2023-04-22T11:55:25;100444.52;;;23.34;31.29
28701;BME280;15877;52.344;16.790;2023-04-22T11:58:03;100444.70;;;23.33;31.05
28701;BME280;15877;52.344;16.790;2023-04-22T12:00:39;100441.65;;;23.32;31.52
28701;BME280;15877;52.344;16.790;2023-04-22T12:03:15;100437.75;;;23.41;31.59
28701;BME280;15877;52.344;16.790;2023-04-22T12:05:53;100434.80;;;23.42;31.31
28701;BME280;15877;52.344;16.790;2023-04-22T12:08:29;100433.51;;;23.14;31.48
28701;BME280;15877;52.344;16.790;2023-04-22T12:11:03;100441.33;;;23.23;32.31
28701;BME280;15877;52.344;16.790;2023-04-22T12:13:41;100433.26;;;23.16;31.86
28701;BME280;15877;52.344;16.790;2023-04-22T12:16:17;100410.88;;;23.10;32.03
28701;BME280;15877;52.344;16.790;2023-04-22T12:18:48;100426.21;;;23.25;32.64
28701;BME280;15877;52.344;16.790;2023-04-22T12:21:22;100423.95;;;23.36;32.04
28701;BME280;15877;52.344;16.790;2023-04-22T12:23:56;100426.17;;;23.45;31.42
28701;BME280;15877;52.344;16.790;2023-04-22T12:26:30;100426.86;;;23.44;31.38
28701;BME280;15877;52.344;16.790;2023-04-22T12:29:02;100424.11;;;23.55;31.19
28701;BME280;15877;52.344;16.790;2023-04-22T12:31:34;100426.20;;;23.52;30.95
28701;BME280;15877;52.344;16.790;2023-04-22T12:34:08;100417.48;;;23.49;30.94
28701;BME280;15877;52.344;16.790;2023-04-22T12:36:40;100411.83;;;23.46;31.06
28701;BME280;15877;52.344;16.790;2023-04-22T12:39:13;100407.88;;;23.53;31.72
28701;BME280;15877;52.344;16.790;2023-04-22T12:41:47;100409.46;;;23.64;31.12
28701;BME280;15877;52.344;16.790;2023-04-22T12:44:20;100408.14;;;23.67;30.72
28701;BME280;15877;52.344;16.790;2023-04-22T12:46:55;100405.80;;;23.64;31.64
28701;BME280;15877;52.344;16.790;2023-04-22T12:49:27;100404.18;;;23.74;31.43
28701;BME280;15877;52.344;16.790;2023-04-22T12:51:59;100402.34;;;23.83;30.80
28701;BME280;15877;52.344;16.790;2023-04-22T12:54:31;100397.88;;;23.88;31.33
28701;BME280;15877;52.344;16.790;2023-04-22T12:57:04;100396.44;;;23.93;30.86
28701;BME280;15877;52.344;16.790;2023-04-22T12:59:36;100393.86;;;24.00;30.71
28701;BME280;15877;52.344;16.790;2023-04-22T13:02:09;100375.52;;;24.08;32.27
28701;BME280;15877;52.344;16.790;2023-04-22T13:04:42;100387.21;;;24.00;31.82
28701;BME280;15877;52.344;16.790;2023-04-22T13:07:15;100383.58;;;24.07;31.67
28701;BME280;15877;52.344;16.790;2023-04-22T13:09:48;100382.38;;;24.14;31.23
28701;BME280;15877;52.344;16.790;2023-04-22T13:12:21;100378.98;;;24.09;29.61
28701;BME280;15877;52.344;16.790;2023-04-22T13:14:53;100373.98;;;24.08;29.62
28701;BME280;15877;52.344;16.790;2023-04-22T13:17:25;100364.27;;;23.92;28.89